sensor_id;sensor_type;location;lat;lon;timestamp;P1;durP1;ratioP1;P2;durP2;ratioP2
28246;SDS011;66191;53.178;22.058;2023-02-28T00:01:28;376.33;;;143.75;;
28246;SDS011;66191;53.178;22.058;2023-02-28T00:03:59;359.85;;;138.63;;
28246;SDS011;66191;53.178;22.058;2023-02-28T00:06:30;371.23;;;141.43;;
28246;SDS011;66191;53.178;22.058;2023-02-28T00:09:01;373.05;;;138.45;;
28246;SDS011;66191;53.178;22.058;2023-02-28T00:11:35;386.17;;;143.80;;
28246;SDS011;66191;53.178;22.058;2023-02-28T00:14:06;378.50;;;137.95;;
28246;SDS011;66191;53.178;22.058;2023-02-28T00:16:38;365.55;;;132.45;;
28246;SDS011;66191;53.178;22.058;2023-02-28T00:19:08;348.58;;;129.75;;
28246;SDS011;66191;53.178;22.058;2023-02-28T00:21:40;369.60;;;137.10;;
28246;SDS011;66191;53.178;22.058;2023-02-28T00:24:11;346.65;;;126.32;;
28246;SDS011;66191;53.178;22.058;2023-02-28T00:26:45;356.45;;;128.80;;
28246;SDS011;66191;53.178;22.058;2023-02-28T00:29:16;339.70;;;120.78;;
28246;SDS011;66191;53.178;22.058;2023-02-28T00:31:47;343.13;;;119.78;;
28246;SDS011;66191;53.178;22.058;2023-02-28T00:34:18;330.48;;;121.85;;
28246;SDS011;66191;53.178;22.058;2023-02-28T00:36:49;327.35;;;116.47;;
28246;SDS011;66191;53.178;22.058;2023-02-28T00:41:54;272.25;;;99.97;;
28246;SDS011;66191;53.178;22.058;2023-02-28T00:44:24;260.40;;;96.68;;
28246;SDS011;66191;53.178;22.058;2023-02-28T00:46:55;318.33;;;112.97;;
28246;SDS011;66191;53.178;22.058;2023-02-28T00:49:27;320.27;;;116.47;;
28246;SDS011;66191;53.178;22.058;2023-02-28T00:51:58;332.15;;;120.75;;
28246;SDS011;66191;53.178;22.058;2023-02-28T00:54:29;335.92;;;123.65;;
28246;SDS011;66191;53.178;22.058;2023-02-28T00:57:03;356.13;;;135.38;;
28246;SDS011;66191;53.178;22.058;2023-02-28T00:59:34;336.98;;;125.80;;
28246;SDS011;66191;53.178;22.058;2023-02-28T01:02:06;336.15;;;123.40;;
28246;SDS011;66191;53.178;22.058;2023-02-28T01:04:37;333.55;;;121.28;;
28246;SDS011;66191;53.178;22.058;2023-02-28T01:07:08;326.20;;;120.82;;
28246;SDS011;66191;53.178;22.058;2023-02-28T01:09:39;316.65;;;117.55;;
28246;SDS011;66191;53.178;22.058;2023-02-28T01:12:12;318.65;;;116.55;;
28246;SDS011;66191;53.178;22.058;2023-02-28T01:14:46;325.17;;;122.13;;
28246;SDS011;66191;53.178;22.058;2023-02-28T01:17:17;341.55;;;126.22;;
28246;SDS011;66191;53.178;22.058;2023-02-28T01:19:48;341.23;;;125.25;;
28246;SDS011;66191;53.178;22.058;2023-02-28T01:22:19;328.73;;;116.72;;
28246;SDS011;66191;53.178;22.058;2023-02-28T01:24:50;295.92;;;107.68;;
28246;SDS011;66191;53.178;22.058;2023-02-28T01:27:24;294.20;;;110.15;;
28246;SDS011;66191;53.178;22.058;2023-02-28T01:29:56;306.83;;;115.13;;
28246;SDS011;66191;53.178;22.058;2023-02-28T01:32:27;305.08;;;108.72;;
28246;SDS011;66191;53.178;22.058;2023-02-28T01:37:28;261.83;;;93.95;;
28246;SDS011;66191;53.178;22.058;2023-02-28T01:42:32;232.18;;;88.53;;
28246;SDS011;66191;53.178;22.058;2023-02-28T01:45:06;224.60;;;85.45;;
28246;SDS011;66191;53.178;22.058;2023-02-28T01:47:49;226.80;;;85.63;;
28246;SDS011;66191;53.178;22.058;2023-02-28T01:50:23;249.32;;;91.82;;
28246;SDS011;66191;53.178;22.058;2023-02-28T01:52:59;225.02;;;83.82;;
28246;SDS011;66191;53.178;22.058;2023-02-28T01:55:33;214.90;;;81.88;;
28246;SDS011;66191;53.178;22.058;2023-02-28T01:58:09;202.73;;;78.40;;
28246;SDS011;66191;53.178;22.058;2023-02-28T02:00:39;193.95;;;74.70;;
28246;SDS011;66191;53.178;22.058;2023-02-28T02:03:12;200.73;;;75.20;;
28246;SDS011;66191;53.178;22.058;2023-02-28T02:05:45;201.77;;;81.15;;
28246;SDS011;66191;53.178;22.058;2023-02-28T02:08:18;210.93;;;83.00;;
28246;SDS011;66191;53.178;22.058;2023-02-28T02:10:52;209.57;;;80.65;;
28246;SDS011;66191;53.178;22.058;2023-02-28T02:16:29;195.25;;;75.93;;
28246;SDS011;66191;53.178;22.058;2023-02-28T02:19:15;195.82;;;74.88;;
28246;SDS011;66191;53.178;22.058;2023-02-28T02:22:18;198.00;;;77.95;;
28246;SDS011;66191;53.178;22.058;2023-02-28T02:25:03;209.90;;;78.55;;
28246;SDS011;66191;53.178;22.058;2023-02-28T02:27:47;197.75;;;76.30;;
28246;SDS011;66191;53.178;22.058;2023-02-28T02:30:39;205.75;;;77.82;;
28246;SDS011;66191;53.178;22.058;2023-02-28T02:33:40;200.30;;;75.18;;
28246;SDS011;66191;53.178;22.058;2023-02-28T02:36:36;171.38;;;66.55;;
28246;SDS011;66191;53.178;22.058;2023-02-28T02:39:19;181.10;;;70.22;;
28246;SDS011;66191;53.178;22.058;2023-02-28T02:41:58;167.10;;;65.63;;
28246;SDS011;66191;53.178;22.058;2023-02-28T02:44:34;168.63;;;66.18;;
28246;SDS011;66191;53.178;22.058;2023-02-28T02:47:12;173.93;;;63.42;;
28246;SDS011;66191;53.178;22.058;2023-02-28T02:49:46;177.38;;;63.50;;
28246;SDS011;66191;53.178;22.058;2023-02-28T02:52:25;153.90;;;58.70;;
28246;SDS011;66191;53.178;22.058;2023-02-28T02:55:05;141.30;;;54.53;;
28246;SDS011;66191;53.178;22.058;2023-02-28T02:57:41;136.93;;;54.35;;
28246;SDS011;66191;53.178;22.058;2023-02-28T03:00:18;129.70;;;52.35;;
28246;SDS011;66191;53.178;22.058;2023-02-28T03:02:54;137.93;;;53.15;;
28246;SDS011;66191;53.178;22.058;2023-02-28T03:05:28;142.90;;;53.65;;
28246;SDS011;66191;53.178;22.058;2023-02-28T03:08:07;148.38;;;54.20;;
28246;SDS011;66191;53.178;22.058;2023-02-28T03:10:39;141.77;;;53.60;;
28246;SDS011;66191;53.178;22.058;2023-02-28T03:13:18;132.55;;;51.50;;
28246;SDS011;66191;53.178;22.058;2023-02-28T03:16:13;143.65;;;51.78;;
28246;SDS011;66191;53.178;22.058;2023-02-28T03:19:09;144.05;;;53.97;;
28246;SDS011;66191;53.178;22.058;2023-02-28T03:21:51;191.77;;;66.75;;
28246;SDS011;66191;53.178;22.058;2023-02-28T03:24:33;147.27;;;56.03;;
28246;SDS011;66191;53.178;22.058;2023-02-28T03:27:11;145.85;;;55.95;;
28246;SDS011;66191;53.178;22.058;2023-02-28T03:29:47;140.73;;;52.33;;
28246;SDS011;66191;53.178;22.058;2023-02-28T03:32:26;124.68;;;50.63;;
28246;SDS011;66191;53.178;22.058;2023-02-28T03:35:03;130.73;;;50.67;;
28246;SDS011;66191;53.178;22.058;2023-02-28T03:37:39;135.30;;;51.42;;
28246;SDS011;66191;53.178;22.058;2023-02-28T03:42:52;146.35;;;61.05;;
28246;SDS011;66191;53.178;22.058;2023-02-28T03:45:29;136.15;;;53.90;;
28246;SDS011;66191;53.178;22.058;2023-02-28T03:48:06;162.60;;;67.13;;
28246;SDS011;66191;53.178;22.058;2023-02-28T03:50:42;171.32;;;70.32;;
28246;SDS011;66191;53.178;22.058;2023-02-28T03:53:18;154.15;;;64.10;;
28246;SDS011;66191;53.178;22.058;2023-02-28T03:55:55;138.60;;;63.10;;
28246;SDS011;66191;53.178;22.058;2023-02-28T03:58:30;140.00;;;58.53;;
28246;SDS011;66191;53.178;22.058;2023-02-28T04:01:08;133.57;;;52.45;;
28246;SDS011;66191;53.178;22.058;2023-02-28T04:03:42;119.10;;;48.55;;
28246;SDS011;66191;53.178;22.058;2023-02-28T04:06:14;130.43;;;48.78;;
28246;SDS011;66191;53.178;22.058;2023-02-28T04:08:47;124.78;;;48.83;;
28246;SDS011;66191;53.178;22.058;2023-02-28T04:11:25;122.18;;;49.00;;
28246;SDS011;66191;53.178;22.058;2023-02-28T04:14:00;127.95;;;49.53;;
28246;SDS011;66191;53.178;22.058;2023-02-28T04:16:32;137.50;;;52.15;;
28246;SDS011;66191;53.178;22.058;2023-02-28T04:19:05;135.23;;;53.55;;
28246;SDS011;66191;53.178;22.058;2023-02-28T04:21:38;140.23;;;53.78;;
28246;SDS011;66191;53.178;22.058;2023-02-28T04:24:10;145.23;;;53.95;;
28246;SDS011;66191;53.178;22.058;2023-02-28T04:26:46;154.65;;;52.75;;
28246;SDS011;66191;53.178;22.058;2023-02-28T04:29:19;151.38;;;54.22;;
28246;SDS011;66191;53.178;22.058;2023-02-28T04:31:51;143.10;;;53.03;;
28246;SDS011;66191;53.178;22.058;2023-02-28T04:34:25;141.82;;;53.13;;
28246;SDS011;66191;53.178;22.058;2023-02-28T04:36:57;126.63;;;51.05;;
28246;SDS011;66191;53.178;22.058;2023-02-28T04:39:39;123.43;;;49.20;;
28246;SDS011;66191;53.178;22.058;2023-02-28T04:42:14;140.85;;;57.13;;
28246;SDS011;66191;53.178;22.058;2023-02-28T04:44:45;144.57;;;58.08;;
28246;SDS011;66191;53.178;22.058;2023-02-28T04:47:16;132.20;;;55.38;;
28246;SDS011;66191;53.178;22.058;2023-02-28T04:49:47;132.35;;;54.70;;
28246;SDS011;66191;53.178;22.058;2023-02-28T04:52:18;129.35;;;50.78;;
28246;SDS011;66191;53.178;22.058;2023-02-28T04:54:49;129.43;;;51.53;;
28246;SDS011;66191;53.178;22.058;2023-02-28T04:57:23;119.00;;;47.17;;
28246;SDS011;66191;53.178;22.058;2023-02-28T04:59:54;115.60;;;44.42;;
28246;SDS011;66191;53.178;22.058;2023-02-28T05:02:25;117.22;;;45.28;;
28246;SDS011;66191;53.178;22.058;2023-02-28T05:04:56;98.68;;;41.40;;
28246;SDS011;66191;53.178;22.058;2023-02-28T05:07:27;102.13;;;39.28;;
28246;SDS011;66191;53.178;22.058;2023-02-28T05:09:58;105.82;;;40.55;;
28246;SDS011;66191;53.178;22.058;2023-02-28T05:12:35;113.38;;;42.88;;
28246;SDS011;66191;53.178;22.058;2023-02-28T05:15:06;110.68;;;42.20;;
28246;SDS011;66191;53.178;22.058;2023-02-28T05:17:38;98.07;;;38.65;;
28246;SDS011;66191;53.178;22.058;2023-02-28T05:20:11;103.22;;;37.78;;
28246;SDS011;66191;53.178;22.058;2023-02-28T05:22:43;106.50;;;40.90;;
28246;SDS011;66191;53.178;22.058;2023-02-28T05:25:16;260.02;;;97.57;;
28246;SDS011;66191;53.178;22.058;2023-02-28T05:27:52;328.70;;;120.63;;
28246;SDS011;66191;53.178;22.058;2023-02-28T05:30:23;347.45;;;126.68;;
28246;SDS011;66191;53.178;22.058;2023-02-28T05:32:54;343.63;;;123.47;;
28246;SDS011;66191;53.178;22.058;2023-02-28T05:35:25;278.95;;;101.55;;
28246;SDS011;66191;53.178;22.058;2023-02-28T05:37:56;268.38;;;92.72;;
28246;SDS011;66191;53.178;22.058;2023-02-28T05:40:27;340.75;;;121.57;;
28246;SDS011;66191;53.178;22.058;2023-02-28T05:43:01;413.70;;;153.38;;
28246;SDS011;66191;53.178;22.058;2023-02-28T05:45:32;375.75;;;142.25;;
28246;SDS011;66191;53.178;22.058;2023-02-28T05:48:03;273.85;;;103.30;;
28246;SDS011;66191;53.178;22.058;2023-02-28T05:50:34;195.75;;;76.90;;
28246;SDS011;66191;53.178;22.058;2023-02-28T05:53:06;189.77;;;79.43;;
28246;SDS011;66191;53.178;22.058;2023-02-28T05:55:37;196.23;;;83.80;;
28246;SDS011;66191;53.178;22.058;2023-02-28T05:58:11;172.52;;;73.25;;
28246;SDS011;66191;53.178;22.058;2023-02-28T06:00:41;176.15;;;71.22;;
28246;SDS011;66191;53.178;22.058;2023-02-28T06:03:13;167.55;;;70.47;;
28246;SDS011;66191;53.178;22.058;2023-02-28T06:05:43;183.05;;;79.65;;
28246;SDS011;66191;53.178;22.058;2023-02-28T06:08:16;229.38;;;95.72;;
28246;SDS011;66191;53.178;22.058;2023-02-28T06:10:47;264.88;;;110.25;;
28246;SDS011;66191;53.178;22.058;2023-02-28T06:13:20;247.93;;;96.70;;
28246;SDS011;66191;53.178;22.058;2023-02-28T06:15:51;244.40;;;92.95;;
28246;SDS011;66191;53.178;22.058;2023-02-28T06:18:22;254.98;;;97.03;;
28246;SDS011;66191;53.178;22.058;2023-02-28T06:20:53;271.23;;;107.65;;
28246;SDS011;66191;53.178;22.058;2023-02-28T06:23:25;295.95;;;124.72;;
28246;SDS011;66191;53.178;22.058;2023-02-28T06:25:55;290.70;;;119.97;;
28246;SDS011;66191;53.178;22.058;2023-02-28T06:28:29;309.33;;;124.68;;
28246;SDS011;66191;53.178;22.058;2023-02-28T06:31:05;342.58;;;136.10;;
28246;SDS011;66191;53.178;22.058;2023-02-28T06:33:37;400.25;;;157.88;;
28246;SDS011;66191;53.178;22.058;2023-02-28T06:36:09;431.75;;;171.55;;
28246;SDS011;66191;53.178;22.058;2023-02-28T06:38:41;416.55;;;164.00;;
28246;SDS011;66191;53.178;22.058;2023-02-28T06:41:12;354.35;;;144.55;;
28246;SDS011;66191;53.178;22.058;2023-02-28T06:43:46;314.65;;;129.65;;
28246;SDS011;66191;53.178;22.058;2023-02-28T06:46:17;257.65;;;108.38;;
28246;SDS011;66191;53.178;22.058;2023-02-28T06:48:49;218.98;;;96.78;;
28246;SDS011;66191;53.178;22.058;2023-02-28T06:51:20;194.90;;;85.07;;
28246;SDS011;66191;53.178;22.058;2023-02-28T06:53:52;173.82;;;75.63;;
28246;SDS011;66191;53.178;22.058;2023-02-28T06:56:23;164.57;;;71.70;;
28246;SDS011;66191;53.178;22.058;2023-02-28T06:58:57;154.60;;;64.53;;
28246;SDS011;66191;53.178;22.058;2023-02-28T07:01:29;143.63;;;60.88;;
28246;SDS011;66191;53.178;22.058;2023-02-28T07:04:01;168.93;;;71.28;;
28246;SDS011;66191;53.178;22.058;2023-02-28T07:06:32;178.10;;;72.30;;
28246;SDS011;66191;53.178;22.058;2023-02-28T07:09:04;265.45;;;88.60;;
28246;SDS011;66191;53.178;22.058;2023-02-28T07:11:35;225.88;;;73.30;;
28246;SDS011;66191;53.178;22.058;2023-02-28T07:14:09;251.02;;;90.47;;
28246;SDS011;66191;53.178;22.058;2023-02-28T07:16:40;240.55;;;87.35;;
28246;SDS011;66191;53.178;22.058;2023-02-28T07:19:13;251.38;;;86.65;;
28246;SDS011;66191;53.178;22.058;2023-02-28T07:21:44;176.52;;;71.68;;
28246;SDS011;66191;53.178;22.058;2023-02-28T07:24:16;152.65;;;62.15;;
28246;SDS011;66191;53.178;22.058;2023-02-28T07:26:47;140.70;;;60.17;;
28246;SDS011;66191;53.178;22.058;2023-02-28T07:29:21;135.25;;;61.13;;
28246;SDS011;66191;53.178;22.058;2023-02-28T07:31:52;136.02;;;61.28;;
28246;SDS011;66191;53.178;22.058;2023-02-28T07:34:24;123.43;;;54.03;;
28246;SDS011;66191;53.178;22.058;2023-02-28T07:36:56;123.85;;;51.88;;
28246;SDS011;66191;53.178;22.058;2023-02-28T07:39:31;141.82;;;57.58;;
28246;SDS011;66191;53.178;22.058;2023-02-28T07:42:04;135.80;;;54.47;;
28246;SDS011;66191;53.178;22.058;2023-02-28T07:44:41;148.13;;;54.30;;
28246;SDS011;66191;53.178;22.058;2023-02-28T07:47:12;132.90;;;51.15;;
28246;SDS011;66191;53.178;22.058;2023-02-28T07:49:44;98.32;;;35.78;;
28246;SDS011;66191;53.178;22.058;2023-02-28T07:52:22;56.25;;;23.45;;
28246;SDS011;66191;53.178;22.058;2023-02-28T07:54:54;59.50;;;21.98;;
28246;SDS011;66191;53.178;22.058;2023-02-28T07:57:25;47.30;;;18.10;;
28246;SDS011;66191;53.178;22.058;2023-02-28T07:59:59;45.05;;;18.17;;
28246;SDS011;66191;53.178;22.058;2023-02-28T08:02:37;37.72;;;15.70;;
28246;SDS011;66191;53.178;22.058;2023-02-28T08:05:08;28.25;;;12.60;;
28246;SDS011;66191;53.178;22.058;2023-02-28T08:07:39;35.33;;;14.48;;
28246;SDS011;66191;53.178;22.058;2023-02-28T08:10:11;34.95;;;14.20;;
28246;SDS011;66191;53.178;22.058;2023-02-28T08:12:42;31.17;;;13.95;;
28246;SDS011;66191;53.178;22.058;2023-02-28T08:15:16;36.08;;;16.08;;
28246;SDS011;66191;53.178;22.058;2023-02-28T08:17:47;37.83;;;16.80;;
28246;SDS011;66191;53.178;22.058;2023-02-28T08:20:19;40.13;;;17.40;;
28246;SDS011;66191;53.178;22.058;2023-02-28T08:22:51;53.05;;;20.52;;
28246;SDS011;66191;53.178;22.058;2023-02-28T08:25:22;42.05;;;16.98;;
28246;SDS011;66191;53.178;22.058;2023-02-28T08:32:58;36.45;;;13.90;;
28246;SDS011;66191;53.178;22.058;2023-02-28T08:35:29;35.45;;;14.45;;
28246;SDS011;66191;53.178;22.058;2023-02-28T08:40:31;35.58;;;14.00;;
28246;SDS011;66191;53.178;22.058;2023-02-28T08:43:02;43.30;;;17.27;;
28246;SDS011;66191;53.178;22.058;2023-02-28T08:45:36;38.78;;;16.58;;
28246;SDS011;66191;53.178;22.058;2023-02-28T08:48:07;38.65;;;15.38;;
28246;SDS011;66191;53.178;22.058;2023-02-28T08:50:39;48.15;;;19.85;;
28246;SDS011;66191;53.178;22.058;2023-02-28T08:53:16;30.65;;;14.88;;
28246;SDS011;66191;53.178;22.058;2023-02-28T08:55:47;29.25;;;14.60;;
28246;SDS011;66191;53.178;22.058;2023-02-28T08:58:26;37.03;;;14.25;;
28246;SDS011;66191;53.178;22.058;2023-02-28T09:01:06;27.70;;;13.02;;
28246;SDS011;66191;53.178;22.058;2023-02-28T09:03:39;32.33;;;14.52;;
28246;SDS011;66191;53.178;22.058;2023-02-28T09:06:14;38.38;;;15.10;;
28246;SDS011;66191;53.178;22.058;2023-02-28T09:08:46;38.22;;;15.98;;
28246;SDS011;66191;53.178;22.058;2023-02-28T09:11:17;33.08;;;15.93;;
28246;SDS011;66191;53.178;22.058;2023-02-28T09:13:49;29.52;;;13.98;;
28246;SDS011;66191;53.178;22.058;2023-02-28T09:16:23;28.15;;;12.63;;
28246;SDS011;66191;53.178;22.058;2023-02-28T09:18:54;30.73;;;12.60;;
28246;SDS011;66191;53.178;22.058;2023-02-28T09:21:25;27.70;;;12.68;;
28246;SDS011;66191;53.178;22.058;2023-02-28T09:23:57;45.03;;;16.55;;
28246;SDS011;66191;53.178;22.058;2023-02-28T09:26:28;29.98;;;12.63;;
28246;SDS011;66191;53.178;22.058;2023-02-28T09:29:13;36.83;;;15.80;;
28246;SDS011;66191;53.178;22.058;2023-02-28T09:31:48;45.55;;;18.02;;
28246;SDS011;66191;53.178;22.058;2023-02-28T09:34:19;29.05;;;12.85;;
28246;SDS011;66191;53.178;22.058;2023-02-28T09:36:50;28.13;;;13.20;;
28246;SDS011;66191;53.178;22.058;2023-02-28T09:39:22;36.70;;;14.40;;
28246;SDS011;66191;53.178;22.058;2023-02-28T09:41:54;32.97;;;12.95;;
28246;SDS011;66191;53.178;22.058;2023-02-28T09:44:27;24.90;;;11.70;;
28246;SDS011;66191;53.178;22.058;2023-02-28T09:47:07;39.53;;;13.57;;
28246;SDS011;66191;53.178;22.058;2023-02-28T09:49:43;33.17;;;12.52;;
28246;SDS011;66191;53.178;22.058;2023-02-28T09:52:18;31.67;;;13.07;;
28246;SDS011;66191;53.178;22.058;2023-02-28T09:54:51;26.38;;;12.18;;
28246;SDS011;66191;53.178;22.058;2023-02-28T09:57:25;25.08;;;11.75;;
28246;SDS011;66191;53.178;22.058;2023-02-28T10:00:06;31.42;;;11.77;;
28246;SDS011;66191;53.178;22.058;2023-02-28T10:05:51;34.13;;;12.73;;
28246;SDS011;66191;53.178;22.058;2023-02-28T10:08:26;28.83;;;13.13;;
28246;SDS011;66191;53.178;22.058;2023-02-28T10:11:01;44.10;;;20.15;;
28246;SDS011;66191;53.178;22.058;2023-02-28T10:13:39;166.20;;;103.75;;
28246;SDS011;66191;53.178;22.058;2023-02-28T10:16:21;38.88;;;22.02;;
28246;SDS011;66191;53.178;22.058;2023-02-28T10:19:02;38.65;;;19.88;;
28246;SDS011;66191;53.178;22.058;2023-02-28T10:21:37;42.83;;;17.80;;
28246;SDS011;66191;53.178;22.058;2023-02-28T10:24:16;31.70;;;14.68;;
28246;SDS011;66191;53.178;22.058;2023-02-28T10:26:51;30.80;;;14.75;;
28246;SDS011;66191;53.178;22.058;2023-02-28T10:29:27;27.25;;;11.95;;
28246;SDS011;66191;53.178;22.058;2023-02-28T10:32:02;39.50;;;18.58;;
28246;SDS011;66191;53.178;22.058;2023-02-28T10:34:38;23.20;;;12.23;;
28246;SDS011;66191;53.178;22.058;2023-02-28T10:37:10;31.23;;;14.57;;
28246;SDS011;66191;53.178;22.058;2023-02-28T10:39:44;31.63;;;14.77;;
28246;SDS011;66191;53.178;22.058;2023-02-28T10:42:24;25.48;;;12.93;;
28246;SDS011;66191;53.178;22.058;2023-02-28T10:45:09;30.85;;;15.13;;
28246;SDS011;66191;53.178;22.058;2023-02-28T10:47:49;108.50;;;58.40;;
28246;SDS011;66191;53.178;22.058;2023-02-28T10:50:31;44.10;;;23.60;;
28246;SDS011;66191;53.178;22.058;2023-02-28T10:53:15;94.63;;;50.30;;
28246;SDS011;66191;53.178;22.058;2023-02-28T10:55:58;316.02;;;163.68;;
28246;SDS011;66191;53.178;22.058;2023-02-28T10:58:33;117.22;;;67.20;;
28246;SDS011;66191;53.178;22.058;2023-02-28T11:01:18;76.85;;;41.00;;
28246;SDS011;66191;53.178;22.058;2023-02-28T11:03:51;39.92;;;19.95;;
28246;SDS011;66191;53.178;22.058;2023-02-28T11:06:28;32.67;;;18.50;;
28246;SDS011;66191;53.178;22.058;2023-02-28T11:09:02;49.15;;;24.13;;
28246;SDS011;66191;53.178;22.058;2023-02-28T11:11:42;89.03;;;50.05;;
28246;SDS011;66191;53.178;22.058;2023-02-28T11:14:17;50.60;;;25.83;;
28246;SDS011;66191;53.178;22.058;2023-02-28T11:16:50;50.15;;;22.83;;
28246;SDS011;66191;53.178;22.058;2023-02-28T11:19:25;87.03;;;45.17;;
28246;SDS011;66191;53.178;22.058;2023-02-28T11:22:01;63.20;;;34.58;;
28246;SDS011;66191;53.178;22.058;2023-02-28T11:24:34;46.75;;;24.95;;
28246;SDS011;66191;53.178;22.058;2023-02-28T11:27:10;150.70;;;84.72;;
28246;SDS011;66191;53.178;22.058;2023-02-28T11:29:55;55.72;;;24.58;;
28246;SDS011;66191;53.178;22.058;2023-02-28T11:32:27;244.65;;;155.55;;
28246;SDS011;66191;53.178;22.058;2023-02-28T11:35:02;33.00;;;19.90;;
28246;SDS011;66191;53.178;22.058;2023-02-28T11:37:46;42.95;;;17.90;;
28246;SDS011;66191;53.178;22.058;2023-02-28T11:40:18;28.98;;;15.38;;
28246;SDS011;66191;53.178;22.058;2023-02-28T11:42:56;26.90;;;12.43;;
28246;SDS011;66191;53.178;22.058;2023-02-28T11:45:39;35.40;;;23.30;;
28246;SDS011;66191;53.178;22.058;2023-02-28T11:48:26;50.22;;;23.52;;
28246;SDS011;66191;53.178;22.058;2023-02-28T11:51:04;36.72;;;17.95;;
28246;SDS011;66191;53.178;22.058;2023-02-28T11:53:51;34.80;;;18.25;;
28246;SDS011;66191;53.178;22.058;2023-02-28T11:56:48;30.23;;;14.45;;
28246;SDS011;66191;53.178;22.058;2023-02-28T11:59:30;20.52;;;10.32;;
28246;SDS011;66191;53.178;22.058;2023-02-28T12:05:08;72.47;;;38.58;;
28246;SDS011;66191;53.178;22.058;2023-02-28T12:07:48;79.32;;;42.63;;
28246;SDS011;66191;53.178;22.058;2023-02-28T12:10:30;47.33;;;22.23;;
28246;SDS011;66191;53.178;22.058;2023-02-28T12:13:16;40.60;;;21.48;;
28246;SDS011;66191;53.178;22.058;2023-02-28T12:15:59;42.53;;;19.58;;
28246;SDS011;66191;53.178;22.058;2023-02-28T12:18:52;28.90;;;14.02;;
28246;SDS011;66191;53.178;22.058;2023-02-28T12:21:33;26.45;;;14.57;;
28246;SDS011;66191;53.178;22.058;2023-02-28T12:24:32;25.05;;;14.68;;
28246;SDS011;66191;53.178;22.058;2023-02-28T12:27:25;29.38;;;14.57;;
28246;SDS011;66191;53.178;22.058;2023-02-28T12:30:00;26.38;;;12.07;;
28246;SDS011;66191;53.178;22.058;2023-02-28T12:32:36;22.27;;;11.63;;
28246;SDS011;66191;53.178;22.058;2023-02-28T12:35:11;26.65;;;13.65;;
28246;SDS011;66191;53.178;22.058;2023-02-28T12:37:45;21.63;;;11.65;;
28246;SDS011;66191;53.178;22.058;2023-02-28T12:40:21;24.85;;;14.68;;
28246;SDS011;66191;53.178;22.058;2023-02-28T12:42:57;60.00;;;32.10;;
28246;SDS011;66191;53.178;22.058;2023-02-28T12:45:34;156.65;;;76.32;;
28246;SDS011;66191;53.178;22.058;2023-02-28T12:48:11;61.40;;;33.80;;
28246;SDS011;66191;53.178;22.058;2023-02-28T12:50:47;44.72;;;28.63;;
28246;SDS011;66191;53.178;22.058;2023-02-28T12:53:21;62.30;;;32.65;;
28246;SDS011;66191;53.178;22.058;2023-02-28T12:56:01;44.22;;;24.20;;
28246;SDS011;66191;53.178;22.058;2023-02-28T12:58:43;60.22;;;41.90;;
28246;SDS011;66191;53.178;22.058;2023-02-28T13:01:26;34.28;;;22.38;;
28246;SDS011;66191;53.178;22.058;2023-02-28T13:04:13;47.40;;;31.23;;
28246;SDS011;66191;53.178;22.058;2023-02-28T13:07:08;31.33;;;16.38;;
28246;SDS011;66191;53.178;22.058;2023-02-28T13:09:52;25.67;;;12.75;;
28246;SDS011;66191;53.178;22.058;2023-02-28T13:12:24;20.08;;;9.25;;
28246;SDS011;66191;53.178;22.058;2023-02-28T13:15:04;23.88;;;11.13;;
28246;SDS011;66191;53.178;22.058;2023-02-28T13:17:42;33.78;;;17.90;;
28246;SDS011;66191;53.178;22.058;2023-02-28T13:20:20;23.48;;;13.40;;
28246;SDS011;66191;53.178;22.058;2023-02-28T13:22:54;28.08;;;15.38;;
28246;SDS011;66191;53.178;22.058;2023-02-28T13:34:41;42.67;;;18.98;;
28246;SDS011;66191;53.178;22.058;2023-02-28T13:40:24;61.80;;;33.28;;
28246;SDS011;66191;53.178;22.058;2023-02-28T13:43:07;52.05;;;23.60;;
28246;SDS011;66191;53.178;22.058;2023-02-28T13:45:38;35.92;;;19.90;;
28246;SDS011;66191;53.178;22.058;2023-02-28T13:48:29;23.20;;;13.35;;
28246;SDS011;66191;53.178;22.058;2023-02-28T13:53:55;160.45;;;93.55;;
28246;SDS011;66191;53.178;22.058;2023-02-28T13:56:35;86.45;;;44.35;;
28246;SDS011;66191;53.178;22.058;2023-02-28T13:59:18;56.30;;;26.50;;
28246;SDS011;66191;53.178;22.058;2023-02-28T14:02:02;52.83;;;30.23;;
28246;SDS011;66191;53.178;22.058;2023-02-28T14:04:54;44.97;;;24.90;;
28246;SDS011;66191;53.178;22.058;2023-02-28T14:07:31;25.45;;;15.40;;
28246;SDS011;66191;53.178;22.058;2023-02-28T14:10:24;29.05;;;16.98;;
28246;SDS011;66191;53.178;22.058;2023-02-28T14:13:02;35.10;;;19.33;;
28246;SDS011;66191;53.178;22.058;2023-02-28T14:15:44;49.95;;;19.98;;
28246;SDS011;66191;53.178;22.058;2023-02-28T14:18:23;35.65;;;11.93;;
28246;SDS011;66191;53.178;22.058;2023-02-28T14:20:59;39.13;;;15.02;;
28246;SDS011;66191;53.178;22.058;2023-02-28T14:23:57;37.10;;;12.60;;
28246;SDS011;66191;53.178;22.058;2023-02-28T14:27:04;27.20;;;11.15;;
28246;SDS011;66191;53.178;22.058;2023-02-28T14:29:51;24.58;;;10.82;;
28246;SDS011;66191;53.178;22.058;2023-02-28T14:32:41;39.05;;;17.77;;
28246;SDS011;66191;53.178;22.058;2023-02-28T14:35:24;839.28;;;483.67;;
28246;SDS011;66191;53.178;22.058;2023-02-28T14:38:13;150.85;;;70.55;;
28246;SDS011;66191;53.178;22.058;2023-02-28T14:43:24;65.03;;;29.67;;
28246;SDS011;66191;53.178;22.058;2023-02-28T14:45:58;67.53;;;28.40;;
28246;SDS011;66191;53.178;22.058;2023-02-28T14:48:32;61.88;;;27.25;;
28246;SDS011;66191;53.178;22.058;2023-02-28T14:51:05;47.60;;;20.13;;
28246;SDS011;66191;53.178;22.058;2023-02-28T14:53:37;50.22;;;22.05;;
28246;SDS011;66191;53.178;22.058;2023-02-28T14:56:17;51.70;;;26.75;;
28246;SDS011;66191;53.178;22.058;2023-02-28T14:58:54;53.53;;;26.38;;
28246;SDS011;66191;53.178;22.058;2023-02-28T15:01:27;72.20;;;37.45;;
28246;SDS011;66191;53.178;22.058;2023-02-28T15:04:00;98.28;;;57.33;;
28246;SDS011;66191;53.178;22.058;2023-02-28T15:06:33;119.03;;;71.68;;
28246;SDS011;66191;53.178;22.058;2023-02-28T15:09:08;164.10;;;96.78;;
28246;SDS011;66191;53.178;22.058;2023-02-28T15:11:40;261.90;;;145.63;;
28246;SDS011;66191;53.178;22.058;2023-02-28T15:14:19;252.25;;;132.23;;
28246;SDS011;66191;53.178;22.058;2023-02-28T15:16:52;111.93;;;57.33;;
28246;SDS011;66191;53.178;22.058;2023-02-28T15:19:29;146.10;;;68.82;;
28246;SDS011;66191;53.178;22.058;2023-02-28T15:22:03;140.63;;;81.85;;
28246;SDS011;66191;53.178;22.058;2023-02-28T15:24:37;93.50;;;59.10;;
28246;SDS011;66191;53.178;22.058;2023-02-28T15:27:12;66.53;;;39.15;;
28246;SDS011;66191;53.178;22.058;2023-02-28T15:29:53;53.13;;;25.80;;
28246;SDS011;66191;53.178;22.058;2023-02-28T15:32:27;57.33;;;24.15;;